<?xml version="1.0" encoding="UTF-8"?>
<gpx version="1.1" creator="https://www.youtrack.es" xsi:schemaLocation="http://www.topografix.com/GPX/1/1 http://www.topografix.com/GPX/1/1/gpx.xsd http://www.garmin.com/xmlschemas/GpxExtensions/v3 http://www.garmin.com/xmlschemas/GpxExtensionsv3.xsd http://www.garmin.com/xmlschemas/TrackPointExtension/v1 http://www.garmin.com/xmlschemas/TrackPointExtensionv1.xsd" xmlns:gpxtpx="http://www.garmin.com/xmlschemas/TrackPointExtension/v1" xmlns:gpxx="http://www.garmin.com/xmlschemas/GpxExtensions/v3" xmlns:xsi="http://www.w3.org/2001/XMLSchema-instance">
  <metadata>
    <link href="https://www.youtrack.es">
      <text>YouTrack.es</text>
    </link>
    <time>2026-05-08T20:59:11Z</time>
  </metadata>
  <trk>
    <src>https://www.youtrack.es</src>
    <link href="https://www.youtrack.es/ruta/29316-harrikulunka">
      <text>YouTrack.es</text>
    </link>
    <trkseg>
      <trkpt lat="43.142890" lon="-1.518519">
        <ele>199.026</ele>
        <time>2022-02-07T14:41:16Z</time>
      </trkpt>
      <trkpt lat="43.142890" lon="-1.518519">
        <ele>199.047</ele>
        <time>2022-02-07T14:41:56Z</time>
      </trkpt>
      <trkpt lat="43.143239" lon="-1.517401">
        <ele>199.111</ele>
        <time>2022-02-07T14:42:36Z</time>
      </trkpt>
      <trkpt lat="43.143833" lon="-1.517938">
        <ele>198.408</ele>
        <time>2022-02-07T14:43:16Z</time>
      </trkpt>
      <trkpt lat="43.144224" lon="-1.517143">
        <ele>199.091</ele>
        <time>2022-02-07T14:43:56Z</time>
      </trkpt>
      <trkpt lat="43.144756" lon="-1.516070">
        <ele>200.966</ele>
        <time>2022-02-07T14:44:36Z</time>
      </trkpt>
      <trkpt lat="43.144521" lon="-1.515727">
        <ele>201.349</ele>
        <time>2022-02-07T14:45:16Z</time>
      </trkpt>
      <trkpt lat="43.144615" lon="-1.515448">
        <ele>201.454</ele>
        <time>2022-02-07T14:45:56Z</time>
      </trkpt>
      <trkpt lat="43.143426" lon="-1.514547">
        <ele>211.044</ele>
        <time>2022-02-07T14:46:36Z</time>
      </trkpt>
      <trkpt lat="43.142676" lon="-1.514246">
        <ele>218.666</ele>
        <time>2022-02-07T14:47:16Z</time>
      </trkpt>
      <trkpt lat="43.142555" lon="-1.514167">
        <ele>219.033</ele>
        <time>2022-02-07T14:47:56Z</time>
      </trkpt>
      <trkpt lat="43.142429" lon="-1.514134">
        <ele>219.931</ele>
        <time>2022-02-07T14:48:36Z</time>
      </trkpt>
      <trkpt lat="43.142297" lon="-1.514210">
        <ele>220.745</ele>
        <time>2022-02-07T14:49:16Z</time>
      </trkpt>
      <trkpt lat="43.141992" lon="-1.514247">
        <ele>226.147</ele>
        <time>2022-02-07T14:49:56Z</time>
      </trkpt>
      <trkpt lat="43.141835" lon="-1.514183">
        <ele>229.311</ele>
        <time>2022-02-07T14:50:36Z</time>
      </trkpt>
      <trkpt lat="43.141276" lon="-1.513759">
        <ele>244.308</ele>
        <time>2022-02-07T14:51:16Z</time>
      </trkpt>
      <trkpt lat="43.141071" lon="-1.513334">
        <ele>252.693</ele>
        <time>2022-02-07T14:51:56Z</time>
      </trkpt>
      <trkpt lat="43.140779" lon="-1.512933">
        <ele>263.298</ele>
        <time>2022-02-07T14:52:36Z</time>
      </trkpt>
      <trkpt lat="43.140107" lon="-1.512451">
        <ele>273.651</ele>
        <time>2022-02-07T14:53:16Z</time>
      </trkpt>
      <trkpt lat="43.138582" lon="-1.512118">
        <ele>291.916</ele>
        <time>2022-02-07T14:53:56Z</time>
      </trkpt>
      <trkpt lat="43.138033" lon="-1.512097">
        <ele>301.986</ele>
        <time>2022-02-07T14:54:36Z</time>
      </trkpt>
      <trkpt lat="43.137416" lon="-1.511806">
        <ele>303.688</ele>
        <time>2022-02-07T14:55:16Z</time>
      </trkpt>
      <trkpt lat="43.137463" lon="-1.510883">
        <ele>309.655</ele>
        <time>2022-02-07T14:55:56Z</time>
      </trkpt>
      <trkpt lat="43.137166" lon="-1.510347">
        <ele>308.943</ele>
        <time>2022-02-07T14:56:36Z</time>
      </trkpt>
      <trkpt lat="43.136400" lon="-1.510003">
        <ele>306.162</ele>
        <time>2022-02-07T14:57:16Z</time>
      </trkpt>
      <trkpt lat="43.135950" lon="-1.509858">
        <ele>305.783</ele>
        <time>2022-02-07T14:57:56Z</time>
      </trkpt>
      <trkpt lat="43.135457" lon="-1.509880">
        <ele>303.911</ele>
        <time>2022-02-07T14:58:36Z</time>
      </trkpt>
      <trkpt lat="43.135481" lon="-1.510041">
        <ele>302.608</ele>
        <time>2022-02-07T14:59:16Z</time>
      </trkpt>
      <trkpt lat="43.135574" lon="-1.510170">
        <ele>302.525</ele>
        <time>2022-02-07T14:59:56Z</time>
      </trkpt>
      <trkpt lat="43.135582" lon="-1.510331">
        <ele>302.790</ele>
        <time>2022-02-07T15:00:36Z</time>
      </trkpt>
      <trkpt lat="43.135496" lon="-1.510406">
        <ele>303.243</ele>
        <time>2022-02-07T15:01:16Z</time>
      </trkpt>
      <trkpt lat="43.134832" lon="-1.510223">
        <ele>299.588</ele>
        <time>2022-02-07T15:01:56Z</time>
      </trkpt>
      <trkpt lat="43.134730" lon="-1.510513">
        <ele>301.638</ele>
        <time>2022-02-07T15:02:36Z</time>
      </trkpt>
      <trkpt lat="43.134558" lon="-1.510728">
        <ele>302.450</ele>
        <time>2022-02-07T15:03:16Z</time>
      </trkpt>
      <trkpt lat="43.134417" lon="-1.510856">
        <ele>301.987</ele>
        <time>2022-02-07T15:03:56Z</time>
      </trkpt>
      <trkpt lat="43.134175" lon="-1.511286">
        <ele>303.765</ele>
        <time>2022-02-07T15:04:36Z</time>
      </trkpt>
      <trkpt lat="43.133956" lon="-1.511253">
        <ele>299.517</ele>
        <time>2022-02-07T15:05:16Z</time>
      </trkpt>
      <trkpt lat="43.133698" lon="-1.511125">
        <ele>299.287</ele>
        <time>2022-02-07T15:05:56Z</time>
      </trkpt>
      <trkpt lat="43.133690" lon="-1.510634">
        <ele>297.615</ele>
        <time>2022-02-07T15:06:36Z</time>
      </trkpt>
      <trkpt lat="43.133557" lon="-1.510666">
        <ele>298.508</ele>
        <time>2022-02-07T15:07:16Z</time>
      </trkpt>
      <trkpt lat="43.133307" lon="-1.510730">
        <ele>300.910</ele>
        <time>2022-02-07T15:07:56Z</time>
      </trkpt>
      <trkpt lat="43.133049" lon="-1.510494">
        <ele>303.185</ele>
        <time>2022-02-07T15:08:36Z</time>
      </trkpt>
      <trkpt lat="43.132783" lon="-1.510623">
        <ele>303.778</ele>
        <time>2022-02-07T15:09:16Z</time>
      </trkpt>
      <trkpt lat="43.132416" lon="-1.510559">
        <ele>304.073</ele>
        <time>2022-02-07T15:09:56Z</time>
      </trkpt>
      <trkpt lat="43.132190" lon="-1.510585">
        <ele>303.763</ele>
        <time>2022-02-07T15:10:36Z</time>
      </trkpt>
      <trkpt lat="43.131846" lon="-1.510360">
        <ele>301.455</ele>
        <time>2022-02-07T15:11:16Z</time>
      </trkpt>
      <trkpt lat="43.131127" lon="-1.510263">
        <ele>306.922</ele>
        <time>2022-02-07T15:11:56Z</time>
      </trkpt>
      <trkpt lat="43.130908" lon="-1.510005">
        <ele>310.460</ele>
        <time>2022-02-07T15:12:36Z</time>
      </trkpt>
      <trkpt lat="43.130626" lon="-1.509351">
        <ele>319.144</ele>
        <time>2022-02-07T15:13:16Z</time>
      </trkpt>
      <trkpt lat="43.130438" lon="-1.509346">
        <ele>320.105</ele>
        <time>2022-02-07T15:13:56Z</time>
      </trkpt>
      <trkpt lat="43.130242" lon="-1.509454">
        <ele>319.915</ele>
        <time>2022-02-07T15:14:36Z</time>
      </trkpt>
      <trkpt lat="43.129844" lon="-1.509057">
        <ele>321.908</ele>
        <time>2022-02-07T15:15:16Z</time>
      </trkpt>
      <trkpt lat="43.129593" lon="-1.508467">
        <ele>324.533</ele>
        <time>2022-02-07T15:15:56Z</time>
      </trkpt>
      <trkpt lat="43.129007" lon="-1.507469">
        <ele>334.498</ele>
        <time>2022-02-07T15:16:36Z</time>
      </trkpt>
      <trkpt lat="43.128960" lon="-1.507147">
        <ele>335.521</ele>
        <time>2022-02-07T15:17:16Z</time>
      </trkpt>
      <trkpt lat="43.128780" lon="-1.506310">
        <ele>339.726</ele>
        <time>2022-02-07T15:17:56Z</time>
      </trkpt>
      <trkpt lat="43.128553" lon="-1.506020">
        <ele>345.456</ele>
        <time>2022-02-07T15:18:36Z</time>
      </trkpt>
      <trkpt lat="43.128405" lon="-1.505280">
        <ele>354.538</ele>
        <time>2022-02-07T15:19:16Z</time>
      </trkpt>
      <trkpt lat="43.128242" lon="-1.504978">
        <ele>358.795</ele>
        <time>2022-02-07T15:19:56Z</time>
      </trkpt>
      <trkpt lat="43.127890" lon="-1.504581">
        <ele>362.693</ele>
        <time>2022-02-07T15:20:36Z</time>
      </trkpt>
      <trkpt lat="43.127702" lon="-1.504441">
        <ele>364.585</ele>
        <time>2022-02-07T15:21:16Z</time>
      </trkpt>
      <trkpt lat="43.127569" lon="-1.504495">
        <ele>365.089</ele>
        <time>2022-02-07T15:21:56Z</time>
      </trkpt>
      <trkpt lat="43.127085" lon="-1.504473">
        <ele>368.317</ele>
        <time>2022-02-07T15:22:36Z</time>
      </trkpt>
      <trkpt lat="43.126686" lon="-1.504184">
        <ele>376.608</ele>
        <time>2022-02-07T15:23:16Z</time>
      </trkpt>
      <trkpt lat="43.126623" lon="-1.504066">
        <ele>380.427</ele>
        <time>2022-02-07T15:23:56Z</time>
      </trkpt>
      <trkpt lat="43.126568" lon="-1.503669">
        <ele>388.122</ele>
        <time>2022-02-07T15:24:36Z</time>
      </trkpt>
      <trkpt lat="43.126506" lon="-1.503486">
        <ele>390.795</ele>
        <time>2022-02-07T15:25:16Z</time>
      </trkpt>
      <trkpt lat="43.126404" lon="-1.503282">
        <ele>393.120</ele>
        <time>2022-02-07T15:25:56Z</time>
      </trkpt>
      <trkpt lat="43.126138" lon="-1.503196">
        <ele>398.450</ele>
        <time>2022-02-07T15:26:36Z</time>
      </trkpt>
      <trkpt lat="43.125864" lon="-1.503433">
        <ele>406.312</ele>
        <time>2022-02-07T15:27:16Z</time>
      </trkpt>
      <trkpt lat="43.125614" lon="-1.503315">
        <ele>412.149</ele>
        <time>2022-02-07T15:27:56Z</time>
      </trkpt>
      <trkpt lat="43.125457" lon="-1.503122">
        <ele>415.197</ele>
        <time>2022-02-07T15:28:36Z</time>
      </trkpt>
      <trkpt lat="43.125301" lon="-1.502897">
        <ele>420.292</ele>
        <time>2022-02-07T15:29:16Z</time>
      </trkpt>
      <trkpt lat="43.124879" lon="-1.502510">
        <ele>430.173</ele>
        <time>2022-02-07T15:29:56Z</time>
      </trkpt>
      <trkpt lat="43.124339" lon="-1.502199">
        <ele>441.420</ele>
        <time>2022-02-07T15:30:36Z</time>
      </trkpt>
      <trkpt lat="43.124417" lon="-1.502596">
        <ele>449.608</ele>
        <time>2022-02-07T15:31:16Z</time>
      </trkpt>
      <trkpt lat="43.124167" lon="-1.502521">
        <ele>454.688</ele>
        <time>2022-02-07T15:31:56Z</time>
      </trkpt>
      <trkpt lat="43.124001" lon="-1.502365">
        <ele>454.263</ele>
        <time>2022-02-07T15:32:36Z</time>
      </trkpt>
      <trkpt lat="43.123750" lon="-1.502322">
        <ele>457.216</ele>
        <time>2022-02-07T15:33:16Z</time>
      </trkpt>
      <trkpt lat="43.123211" lon="-1.502193">
        <ele>464.421</ele>
        <time>2022-02-07T15:33:56Z</time>
      </trkpt>
      <trkpt lat="43.122867" lon="-1.502182">
        <ele>468.761</ele>
        <time>2022-02-07T15:34:36Z</time>
      </trkpt>
      <trkpt lat="43.122491" lon="-1.502311">
        <ele>475.243</ele>
        <time>2022-02-07T15:35:16Z</time>
      </trkpt>
      <trkpt lat="43.121740" lon="-1.502751">
        <ele>493.040</ele>
        <time>2022-02-07T15:35:56Z</time>
      </trkpt>
      <trkpt lat="43.121521" lon="-1.502933">
        <ele>494.868</ele>
        <time>2022-02-07T15:36:36Z</time>
      </trkpt>
      <trkpt lat="43.121215" lon="-1.503643">
        <ele>505.565</ele>
        <time>2022-02-07T15:37:16Z</time>
      </trkpt>
      <trkpt lat="43.121176" lon="-1.503879">
        <ele>507.568</ele>
        <time>2022-02-07T15:37:56Z</time>
      </trkpt>
      <trkpt lat="43.120730" lon="-1.504362">
        <ele>514.214</ele>
        <time>2022-02-07T15:38:36Z</time>
      </trkpt>
      <trkpt lat="43.120410" lon="-1.503981">
        <ele>511.608</ele>
        <time>2022-02-07T15:39:16Z</time>
      </trkpt>
      <trkpt lat="43.120081" lon="-1.503423">
        <ele>506.645</ele>
        <time>2022-02-07T15:39:56Z</time>
      </trkpt>
      <trkpt lat="43.119675" lon="-1.502908">
        <ele>497.440</ele>
        <time>2022-02-07T15:40:36Z</time>
      </trkpt>
      <trkpt lat="43.119127" lon="-1.502672">
        <ele>494.223</ele>
        <time>2022-02-07T15:41:16Z</time>
      </trkpt>
      <trkpt lat="43.118454" lon="-1.502672">
        <ele>489.558</ele>
        <time>2022-02-07T15:41:56Z</time>
      </trkpt>
      <trkpt lat="43.117704" lon="-1.502608">
        <ele>492.778</ele>
        <time>2022-02-07T15:42:36Z</time>
      </trkpt>
      <trkpt lat="43.117266" lon="-1.502243">
        <ele>496.370</ele>
        <time>2022-02-07T15:43:16Z</time>
      </trkpt>
      <trkpt lat="43.116734" lon="-1.501771">
        <ele>489.967</ele>
        <time>2022-02-07T15:43:56Z</time>
      </trkpt>
      <trkpt lat="43.116155" lon="-1.501578">
        <ele>496.585</ele>
        <time>2022-02-07T15:44:36Z</time>
      </trkpt>
      <trkpt lat="43.115858" lon="-1.501384">
        <ele>499.185</ele>
        <time>2022-02-07T15:45:16Z</time>
      </trkpt>
      <trkpt lat="43.115826" lon="-1.500891">
        <ele>493.989</ele>
        <time>2022-02-07T15:45:56Z</time>
      </trkpt>
      <trkpt lat="43.115388" lon="-1.500762">
        <ele>494.217</ele>
        <time>2022-02-07T15:46:36Z</time>
      </trkpt>
      <trkpt lat="43.114888" lon="-1.500549">
        <ele>492.008</ele>
        <time>2022-02-07T15:47:16Z</time>
      </trkpt>
      <trkpt lat="43.113725" lon="-1.500585">
        <ele>496.427</ele>
        <time>2022-02-07T15:47:56Z</time>
      </trkpt>
      <trkpt lat="43.113452" lon="-1.500435">
        <ele>495.772</ele>
        <time>2022-02-07T15:48:36Z</time>
      </trkpt>
      <trkpt lat="43.113248" lon="-1.500156">
        <ele>496.285</ele>
        <time>2022-02-07T15:49:16Z</time>
      </trkpt>
      <trkpt lat="43.113014" lon="-1.500038">
        <ele>501.190</ele>
        <time>2022-02-07T15:49:56Z</time>
      </trkpt>
      <trkpt lat="43.112325" lon="-1.499802">
        <ele>509.380</ele>
        <time>2022-02-07T15:50:36Z</time>
      </trkpt>
      <trkpt lat="43.111981" lon="-1.499458">
        <ele>510.942</ele>
        <time>2022-02-07T15:51:16Z</time>
      </trkpt>
      <trkpt lat="43.111809" lon="-1.499136">
        <ele>512.959</ele>
        <time>2022-02-07T15:51:56Z</time>
      </trkpt>
      <trkpt lat="43.111360" lon="-1.498688">
        <ele>518.677</ele>
        <time>2022-02-07T15:52:36Z</time>
      </trkpt>
      <trkpt lat="43.110992" lon="-1.498431">
        <ele>522.146</ele>
        <time>2022-02-07T15:53:16Z</time>
      </trkpt>
      <trkpt lat="43.110648" lon="-1.498323">
        <ele>525.488</ele>
        <time>2022-02-07T15:53:56Z</time>
      </trkpt>
      <trkpt lat="43.110437" lon="-1.498120">
        <ele>528.716</ele>
        <time>2022-02-07T15:54:36Z</time>
      </trkpt>
      <trkpt lat="43.110030" lon="-1.498023">
        <ele>534.008</ele>
        <time>2022-02-07T15:55:16Z</time>
      </trkpt>
      <trkpt lat="43.109670" lon="-1.497669">
        <ele>540.513</ele>
        <time>2022-02-07T15:55:56Z</time>
      </trkpt>
      <trkpt lat="43.109372" lon="-1.497399">
        <ele>540.748</ele>
        <time>2022-02-07T15:56:36Z</time>
      </trkpt>
      <trkpt lat="43.108918" lon="-1.497184">
        <ele>542.451</ele>
        <time>2022-02-07T15:57:16Z</time>
      </trkpt>
      <trkpt lat="43.108848" lon="-1.497066">
        <ele>542.696</ele>
        <time>2022-02-07T15:57:56Z</time>
      </trkpt>
      <trkpt lat="43.108496" lon="-1.496727">
        <ele>550.686</ele>
        <time>2022-02-07T15:58:36Z</time>
      </trkpt>
      <trkpt lat="43.108105" lon="-1.496384">
        <ele>563.688</ele>
        <time>2022-02-07T15:59:16Z</time>
      </trkpt>
      <trkpt lat="43.107682" lon="-1.496105">
        <ele>579.885</ele>
        <time>2022-02-07T15:59:56Z</time>
      </trkpt>
      <trkpt lat="43.107338" lon="-1.495869">
        <ele>592.043</ele>
        <time>2022-02-07T16:00:36Z</time>
      </trkpt>
      <trkpt lat="43.106603" lon="-1.495311">
        <ele>613.717</ele>
        <time>2022-02-07T16:01:16Z</time>
      </trkpt>
      <trkpt lat="43.106337" lon="-1.496083">
        <ele>624.987</ele>
        <time>2022-02-07T16:01:56Z</time>
      </trkpt>
      <trkpt lat="43.106196" lon="-1.496448">
        <ele>625.315</ele>
        <time>2022-02-07T16:02:36Z</time>
      </trkpt>
      <trkpt lat="43.105977" lon="-1.496963">
        <ele>627.208</ele>
        <time>2022-02-07T16:03:16Z</time>
      </trkpt>
      <trkpt lat="43.105742" lon="-1.497371">
        <ele>632.950</ele>
        <time>2022-02-07T16:03:56Z</time>
      </trkpt>
      <trkpt lat="43.105460" lon="-1.497757">
        <ele>638.135</ele>
        <time>2022-02-07T16:04:36Z</time>
      </trkpt>
      <trkpt lat="43.104459" lon="-1.498315">
        <ele>657.058</ele>
        <time>2022-02-07T16:05:16Z</time>
      </trkpt>
      <trkpt lat="43.104195" lon="-1.498424">
        <ele>660.113</ele>
        <time>2022-02-07T16:05:56Z</time>
      </trkpt>
      <trkpt lat="43.102990" lon="-1.498209">
        <ele>679.073</ele>
        <time>2022-02-07T16:06:36Z</time>
      </trkpt>
      <trkpt lat="43.102411" lon="-1.497801">
        <ele>683.985</ele>
        <time>2022-02-07T16:07:16Z</time>
      </trkpt>
      <trkpt lat="43.101738" lon="-1.496643">
        <ele>693.482</ele>
        <time>2022-02-07T16:07:56Z</time>
      </trkpt>
      <trkpt lat="43.101486" lon="-1.496541">
        <ele>691.610</ele>
        <time>2022-02-07T16:08:36Z</time>
      </trkpt>
      <trkpt lat="43.101126" lon="-1.496176">
        <ele>694.288</ele>
        <time>2022-02-07T16:09:16Z</time>
      </trkpt>
      <trkpt lat="43.100688" lon="-1.495854">
        <ele>698.024</ele>
        <time>2022-02-07T16:09:56Z</time>
      </trkpt>
      <trkpt lat="43.100250" lon="-1.495446">
        <ele>700.726</ele>
        <time>2022-02-07T16:10:36Z</time>
      </trkpt>
      <trkpt lat="43.099577" lon="-1.495082">
        <ele>704.308</ele>
        <time>2022-02-07T16:11:16Z</time>
      </trkpt>
      <trkpt lat="43.099248" lon="-1.494674">
        <ele>707.087</ele>
        <time>2022-02-07T16:11:56Z</time>
      </trkpt>
      <trkpt lat="43.099154" lon="-1.494094">
        <ele>716.542</ele>
        <time>2022-02-07T16:12:36Z</time>
      </trkpt>
      <trkpt lat="43.098935" lon="-1.493772">
        <ele>718.135</ele>
        <time>2022-02-07T16:13:16Z</time>
      </trkpt>
      <trkpt lat="43.098513" lon="-1.493279">
        <ele>723.770</ele>
        <time>2022-02-07T16:13:56Z</time>
      </trkpt>
      <trkpt lat="43.098043" lon="-1.492957">
        <ele>727.310</ele>
        <time>2022-02-07T16:14:36Z</time>
      </trkpt>
      <trkpt lat="43.097903" lon="-1.492356">
        <ele>735.422</ele>
        <time>2022-02-07T16:15:16Z</time>
      </trkpt>
      <trkpt lat="43.097324" lon="-1.491540">
        <ele>754.429</ele>
        <time>2022-02-07T16:15:56Z</time>
      </trkpt>
      <trkpt lat="43.096572" lon="-1.491240">
        <ele>761.987</ele>
        <time>2022-02-07T16:16:36Z</time>
      </trkpt>
      <trkpt lat="43.096013" lon="-1.490941">
        <ele>767.273</ele>
        <time>2022-02-07T16:17:16Z</time>
      </trkpt>
      <trkpt lat="43.095715" lon="-1.490469">
        <ele>773.685</ele>
        <time>2022-02-07T16:17:56Z</time>
      </trkpt>
      <trkpt lat="43.095387" lon="-1.489482">
        <ele>786.413</ele>
        <time>2022-02-07T16:18:36Z</time>
      </trkpt>
      <trkpt lat="43.095277" lon="-1.489117">
        <ele>788.908</ele>
        <time>2022-02-07T16:19:16Z</time>
      </trkpt>
      <trkpt lat="43.095168" lon="-1.488687">
        <ele>793.886</ele>
        <time>2022-02-07T16:19:56Z</time>
      </trkpt>
      <trkpt lat="43.095105" lon="-1.487915">
        <ele>807.681</ele>
        <time>2022-02-07T16:20:36Z</time>
      </trkpt>
      <trkpt lat="43.094933" lon="-1.485533">
        <ele>844.054</ele>
        <time>2022-02-07T16:21:16Z</time>
      </trkpt>
      <trkpt lat="43.094839" lon="-1.484889">
        <ele>854.819</ele>
        <time>2022-02-07T16:21:56Z</time>
      </trkpt>
      <trkpt lat="43.094385" lon="-1.483730">
        <ele>879.629</ele>
        <time>2022-02-07T16:22:36Z</time>
      </trkpt>
      <trkpt lat="43.094534" lon="-1.483357">
        <ele>889.331</ele>
        <time>2022-02-07T16:23:16Z</time>
      </trkpt>
      <trkpt lat="43.094769" lon="-1.482563">
        <ele>899.238</ele>
        <time>2022-02-07T16:23:56Z</time>
      </trkpt>
      <trkpt lat="43.094730" lon="-1.481383">
        <ele>908.716</ele>
        <time>2022-02-07T16:24:36Z</time>
      </trkpt>
      <trkpt lat="43.094753" lon="-1.481050">
        <ele>907.938</ele>
        <time>2022-02-07T16:25:16Z</time>
      </trkpt>
      <trkpt lat="43.094573" lon="-1.480385">
        <ele>912.170</ele>
        <time>2022-02-07T16:25:56Z</time>
      </trkpt>
      <trkpt lat="43.094260" lon="-1.479419">
        <ele>917.117</ele>
        <time>2022-02-07T16:26:36Z</time>
      </trkpt>
      <trkpt lat="43.094135" lon="-1.478743">
        <ele>917.408</ele>
        <time>2022-02-07T16:27:16Z</time>
      </trkpt>
      <trkpt lat="43.093978" lon="-1.478303">
        <ele>920.922</ele>
        <time>2022-02-07T16:27:56Z</time>
      </trkpt>
      <trkpt lat="43.093924" lon="-1.477981">
        <ele>920.757</ele>
        <time>2022-02-07T16:28:36Z</time>
      </trkpt>
      <trkpt lat="43.093703" lon="-1.477485">
        <ele>922.850</ele>
        <time>2022-02-07T16:29:16Z</time>
      </trkpt>
      <trkpt lat="43.093367" lon="-1.476788">
        <ele>925.065</ele>
        <time>2022-02-07T16:29:56Z</time>
      </trkpt>
      <trkpt lat="43.093061" lon="-1.476316">
        <ele>928.035</ele>
        <time>2022-02-07T16:30:36Z</time>
      </trkpt>
      <trkpt lat="43.092608" lon="-1.475908">
        <ele>929.537</ele>
        <time>2022-02-07T16:31:16Z</time>
      </trkpt>
      <trkpt lat="43.092490" lon="-1.475457">
        <ele>925.574</ele>
        <time>2022-02-07T16:31:56Z</time>
      </trkpt>
      <trkpt lat="43.092256" lon="-1.475178">
        <ele>927.332</ele>
        <time>2022-02-07T16:32:36Z</time>
      </trkpt>
      <trkpt lat="43.092091" lon="-1.474577">
        <ele>925.613</ele>
        <time>2022-02-07T16:33:16Z</time>
      </trkpt>
      <trkpt lat="43.092052" lon="-1.474309">
        <ele>924.643</ele>
        <time>2022-02-07T16:33:56Z</time>
      </trkpt>
      <trkpt lat="43.091558" lon="-1.473469">
        <ele>926.007</ele>
        <time>2022-02-07T16:34:36Z</time>
      </trkpt>
      <trkpt lat="43.091409" lon="-1.472804">
        <ele>924.708</ele>
        <time>2022-02-07T16:35:16Z</time>
      </trkpt>
      <trkpt lat="43.091552" lon="-1.472684">
        <ele>925.320</ele>
        <time>2022-02-07T16:35:56Z</time>
      </trkpt>
      <trkpt lat="43.091465" lon="-1.472233">
        <ele>930.735</ele>
        <time>2022-02-07T16:36:36Z</time>
      </trkpt>
      <trkpt lat="43.091465" lon="-1.471954">
        <ele>936.418</ele>
        <time>2022-02-07T16:37:16Z</time>
      </trkpt>
      <trkpt lat="43.090957" lon="-1.471193">
        <ele>942.283</ele>
        <time>2022-02-07T16:37:56Z</time>
      </trkpt>
      <trkpt lat="43.091904" lon="-1.470828">
        <ele>954.863</ele>
        <time>2022-02-07T16:38:36Z</time>
      </trkpt>
      <trkpt lat="43.092664" lon="-1.470294">
        <ele>958.995</ele>
        <time>2022-02-07T16:39:16Z</time>
      </trkpt>
      <trkpt lat="43.093048" lon="-1.470358">
        <ele>964.252</ele>
        <time>2022-02-07T16:39:56Z</time>
      </trkpt>
      <trkpt lat="43.093259" lon="-1.469972">
        <ele>975.910</ele>
        <time>2022-02-07T16:40:36Z</time>
      </trkpt>
      <trkpt lat="43.094653" lon="-1.469251">
        <ele>932.439</ele>
        <time>2022-02-07T16:41:16Z</time>
      </trkpt>
      <trkpt lat="43.106759" lon="-1.503174">
        <ele>587.095</ele>
        <time>2022-02-07T09:27:28Z</time>
      </trkpt>
      <trkpt lat="43.106630" lon="-1.503173">
        <ele>587.149</ele>
        <time>2022-02-07T09:27:37Z</time>
      </trkpt>
      <trkpt lat="43.106343" lon="-1.502641">
        <ele>586.523</ele>
        <time>2022-02-07T09:28:34Z</time>
      </trkpt>
      <trkpt lat="43.106527" lon="-1.502888">
        <ele>586.908</ele>
        <time>2022-02-07T09:28:58Z</time>
      </trkpt>
      <trkpt lat="43.106198" lon="-1.502232">
        <ele>589.118</ele>
        <time>2022-02-07T09:29:55Z</time>
      </trkpt>
      <trkpt lat="43.105862" lon="-1.500944">
        <ele>588.443</ele>
        <time>2022-02-07T09:31:37Z</time>
      </trkpt>
      <trkpt lat="43.105536" lon="-1.500417">
        <ele>591.586</ele>
        <time>2022-02-07T09:32:27Z</time>
      </trkpt>
      <trkpt lat="43.105728" lon="-1.499555">
        <ele>600.980</ele>
        <time>2022-02-07T09:33:31Z</time>
      </trkpt>
      <trkpt lat="43.105783" lon="-1.497436">
        <ele>627.651</ele>
        <time>2022-02-07T09:36:45Z</time>
      </trkpt>
      <trkpt lat="43.104313" lon="-1.498309">
        <ele>656.166</ele>
        <time>2022-02-07T09:39:22Z</time>
      </trkpt>
      <trkpt lat="43.103279" lon="-1.498241">
        <ele>673.755</ele>
        <time>2022-02-07T09:40:56Z</time>
      </trkpt>
      <trkpt lat="43.102722" lon="-1.498051">
        <ele>680.480</ele>
        <time>2022-02-07T09:41:41Z</time>
      </trkpt>
      <trkpt lat="43.101253" lon="-1.496250">
        <ele>691.831</ele>
        <time>2022-02-07T09:44:56Z</time>
      </trkpt>
      <trkpt lat="43.099259" lon="-1.494750">
        <ele>705.361</ele>
        <time>2022-02-07T09:49:26Z</time>
      </trkpt>
      <trkpt lat="43.099177" lon="-1.493859">
        <ele>716.707</ele>
        <time>2022-02-07T09:50:23Z</time>
      </trkpt>
      <trkpt lat="43.098449" lon="-1.493188">
        <ele>721.108</ele>
        <time>2022-02-07T09:51:54Z</time>
      </trkpt>
      <trkpt lat="43.098091" lon="-1.493131">
        <ele>724.992</ele>
        <time>2022-02-07T09:52:26Z</time>
      </trkpt>
      <trkpt lat="43.098109" lon="-1.492823">
        <ele>725.357</ele>
        <time>2022-02-07T09:52:50Z</time>
      </trkpt>
      <trkpt lat="43.097894" lon="-1.492671">
        <ele>726.890</ele>
        <time>2022-02-07T09:54:40Z</time>
      </trkpt>
      <trkpt lat="43.097845" lon="-1.492283">
        <ele>731.894</ele>
        <time>2022-02-07T09:55:31Z</time>
      </trkpt>
      <trkpt lat="43.097462" lon="-1.491671">
        <ele>746.535</ele>
        <time>2022-02-07T09:56:33Z</time>
      </trkpt>
      <trkpt lat="43.097115" lon="-1.491373">
        <ele>753.790</ele>
        <time>2022-02-07T09:57:33Z</time>
      </trkpt>
      <trkpt lat="43.096168" lon="-1.490994">
        <ele>768.829</ele>
        <time>2022-02-07T09:58:54Z</time>
      </trkpt>
      <trkpt lat="43.095845" lon="-1.490592">
        <ele>771.994</ele>
        <time>2022-02-07T09:59:31Z</time>
      </trkpt>
      <trkpt lat="43.095410" lon="-1.489413">
        <ele>786.337</ele>
        <time>2022-02-07T10:00:56Z</time>
      </trkpt>
      <trkpt lat="43.095227" lon="-1.488408">
        <ele>802.449</ele>
        <time>2022-02-07T10:02:08Z</time>
      </trkpt>
      <trkpt lat="43.094954" lon="-1.485292">
        <ele>847.213</ele>
        <time>2022-02-07T10:05:33Z</time>
      </trkpt>
      <trkpt lat="43.094388" lon="-1.483775">
        <ele>875.908</ele>
        <time>2022-02-07T10:10:46Z</time>
      </trkpt>
      <trkpt lat="43.094479" lon="-1.483259">
        <ele>889.452</ele>
        <time>2022-02-07T10:11:47Z</time>
      </trkpt>
      <trkpt lat="43.094304" lon="-1.483233">
        <ele>892.717</ele>
        <time>2022-02-07T10:12:14Z</time>
      </trkpt>
      <trkpt lat="43.094627" lon="-1.483293">
        <ele>893.030</ele>
        <time>2022-02-07T10:14:26Z</time>
      </trkpt>
      <trkpt lat="43.094814" lon="-1.482543">
        <ele>901.864</ele>
        <time>2022-02-07T10:15:55Z</time>
      </trkpt>
      <trkpt lat="43.094773" lon="-1.481094">
        <ele>910.575</ele>
        <time>2022-02-07T10:18:21Z</time>
      </trkpt>
      <trkpt lat="43.094332" lon="-1.479639">
        <ele>915.540</ele>
        <time>2022-02-07T10:20:55Z</time>
      </trkpt>
      <trkpt lat="43.094742" lon="-1.481019">
        <ele>912.189</ele>
        <time>2022-02-07T10:24:53Z</time>
      </trkpt>
      <trkpt lat="43.094797" lon="-1.482007">
        <ele>908.134</ele>
        <time>2022-02-07T10:26:40Z</time>
      </trkpt>
      <trkpt lat="43.094659" lon="-1.483113">
        <ele>897.388</ele>
        <time>2022-02-07T10:28:04Z</time>
      </trkpt>
      <trkpt lat="43.094400" lon="-1.483903">
        <ele>884.124</ele>
        <time>2022-02-07T10:28:48Z</time>
      </trkpt>
      <trkpt lat="43.094857" lon="-1.484804">
        <ele>860.626</ele>
        <time>2022-02-07T10:29:58Z</time>
      </trkpt>
      <trkpt lat="43.095198" lon="-1.488710">
        <ele>802.008</ele>
        <time>2022-02-07T10:35:42Z</time>
      </trkpt>
      <trkpt lat="43.095821" lon="-1.490751">
        <ele>773.597</ele>
        <time>2022-02-07T10:37:36Z</time>
      </trkpt>
      <trkpt lat="43.097238" lon="-1.491437">
        <ele>755.862</ele>
        <time>2022-02-07T10:39:19Z</time>
      </trkpt>
      <trkpt lat="43.097549" lon="-1.491737">
        <ele>750.045</ele>
        <time>2022-02-07T10:40:07Z</time>
      </trkpt>
      <trkpt lat="43.097915" lon="-1.492333">
        <ele>737.869</ele>
        <time>2022-02-07T10:40:52Z</time>
      </trkpt>
      <trkpt lat="43.097930" lon="-1.492651">
        <ele>730.170</ele>
        <time>2022-02-07T10:41:16Z</time>
      </trkpt>
      <trkpt lat="43.098119" lon="-1.492713">
        <ele>725.835</ele>
        <time>2022-02-07T10:41:35Z</time>
      </trkpt>
      <trkpt lat="43.097947" lon="-1.492707">
        <ele>723.514</ele>
        <time>2022-02-07T10:42:40Z</time>
      </trkpt>
      <trkpt lat="43.098120" lon="-1.492822">
        <ele>723.379</ele>
        <time>2022-02-07T10:44:12Z</time>
      </trkpt>
      <trkpt lat="43.098098" lon="-1.493105">
        <ele>723.122</ele>
        <time>2022-02-07T10:45:11Z</time>
      </trkpt>
      <trkpt lat="43.098478" lon="-1.493230">
        <ele>721.662</ele>
        <time>2022-02-07T10:45:43Z</time>
      </trkpt>
      <trkpt lat="43.099162" lon="-1.493895">
        <ele>714.508</ele>
        <time>2022-02-07T10:47:25Z</time>
      </trkpt>
      <trkpt lat="43.099257" lon="-1.494841">
        <ele>705.908</ele>
        <time>2022-02-07T10:48:22Z</time>
      </trkpt>
      <trkpt lat="43.099714" lon="-1.495197">
        <ele>701.691</ele>
        <time>2022-02-07T10:49:43Z</time>
      </trkpt>
      <trkpt lat="43.100301" lon="-1.495414">
        <ele>699.046</ele>
        <time>2022-02-07T10:50:34Z</time>
      </trkpt>
      <trkpt lat="43.100988" lon="-1.496082">
        <ele>694.549</ele>
        <time>2022-02-07T10:51:40Z</time>
      </trkpt>
      <trkpt lat="43.101305" lon="-1.496217">
        <ele>691.493</ele>
        <time>2022-02-07T10:52:11Z</time>
      </trkpt>
      <trkpt lat="43.101371" lon="-1.496522">
        <ele>689.324</ele>
        <time>2022-02-07T10:53:00Z</time>
      </trkpt>
      <trkpt lat="43.102150" lon="-1.497181">
        <ele>685.329</ele>
        <time>2022-02-07T10:54:42Z</time>
      </trkpt>
      <trkpt lat="43.102453" lon="-1.497827">
        <ele>682.098</ele>
        <time>2022-02-07T10:55:37Z</time>
      </trkpt>
      <trkpt lat="43.102963" lon="-1.498196">
        <ele>677.623</ele>
        <time>2022-02-07T10:56:34Z</time>
      </trkpt>
      <trkpt lat="43.104398" lon="-1.498414">
        <ele>657.383</ele>
        <time>2022-02-07T10:58:32Z</time>
      </trkpt>
      <trkpt lat="43.105566" lon="-1.497793">
        <ele>636.025</ele>
        <time>2022-02-07T10:59:59Z</time>
      </trkpt>
      <trkpt lat="43.105999" lon="-1.497054">
        <ele>624.217</ele>
        <time>2022-02-07T11:02:17Z</time>
      </trkpt>
      <trkpt lat="43.106157" lon="-1.496458">
        <ele>620.008</ele>
        <time>2022-02-07T11:02:51Z</time>
      </trkpt>
      <trkpt lat="43.106404" lon="-1.496227">
        <ele>618.967</ele>
        <time>2022-02-07T11:03:12Z</time>
      </trkpt>
      <trkpt lat="43.106454" lon="-1.495693">
        <ele>615.212</ele>
        <time>2022-02-07T11:03:39Z</time>
      </trkpt>
      <trkpt lat="43.106730" lon="-1.495241">
        <ele>608.045</ele>
        <time>2022-02-07T11:05:29Z</time>
      </trkpt>
      <trkpt lat="43.107481" lon="-1.496004">
        <ele>586.599</ele>
        <time>2022-02-07T11:06:39Z</time>
      </trkpt>
      <trkpt lat="43.108076" lon="-1.496223">
        <ele>569.190</ele>
        <time>2022-02-07T11:07:24Z</time>
      </trkpt>
      <trkpt lat="43.108326" lon="-1.496661">
        <ele>554.725</ele>
        <time>2022-02-07T11:07:53Z</time>
      </trkpt>
      <trkpt lat="43.109044" lon="-1.497329">
        <ele>533.924</ele>
        <time>2022-02-07T11:08:50Z</time>
      </trkpt>
      <trkpt lat="43.111028" lon="-1.498415">
        <ele>514.639</ele>
        <time>2022-02-07T11:12:53Z</time>
      </trkpt>
      <trkpt lat="43.112020" lon="-1.497976">
        <ele>499.163</ele>
        <time>2022-02-07T11:14:16Z</time>
      </trkpt>
      <trkpt lat="43.112360" lon="-1.496898">
        <ele>485.944</ele>
        <time>2022-02-07T11:15:13Z</time>
      </trkpt>
      <trkpt lat="43.112853" lon="-1.496959">
        <ele>482.018</ele>
        <time>2022-02-07T11:15:49Z</time>
      </trkpt>
      <trkpt lat="43.113715" lon="-1.497594">
        <ele>466.708</ele>
        <time>2022-02-07T11:16:58Z</time>
      </trkpt>
      <trkpt lat="43.114411" lon="-1.497588">
        <ele>450.425</ele>
        <time>2022-02-07T11:17:51Z</time>
      </trkpt>
      <trkpt lat="43.115259" lon="-1.497363">
        <ele>433.980</ele>
        <time>2022-02-07T11:18:48Z</time>
      </trkpt>
      <trkpt lat="43.115924" lon="-1.496400">
        <ele>415.623</ele>
        <time>2022-02-07T11:20:02Z</time>
      </trkpt>
      <trkpt lat="43.116023" lon="-1.495223">
        <ele>401.097</ele>
        <time>2022-02-07T11:21:21Z</time>
      </trkpt>
      <trkpt lat="43.116416" lon="-1.496028">
        <ele>389.898</ele>
        <time>2022-02-07T11:22:17Z</time>
      </trkpt>
      <trkpt lat="43.117255" lon="-1.497203">
        <ele>366.073</ele>
        <time>2022-02-07T11:23:42Z</time>
      </trkpt>
      <trkpt lat="43.117995" lon="-1.496945">
        <ele>367.022</ele>
        <time>2022-02-07T11:25:11Z</time>
      </trkpt>
      <trkpt lat="43.118490" lon="-1.497088">
        <ele>364.977</ele>
        <time>2022-02-07T11:25:55Z</time>
      </trkpt>
      <trkpt lat="43.119497" lon="-1.497651">
        <ele>358.972</ele>
        <time>2022-02-07T11:27:20Z</time>
      </trkpt>
      <trkpt lat="43.119657" lon="-1.498668">
        <ele>352.813</ele>
        <time>2022-02-07T11:28:20Z</time>
      </trkpt>
      <trkpt lat="43.119930" lon="-1.498657">
        <ele>352.814</ele>
        <time>2022-02-07T11:28:35Z</time>
      </trkpt>
      <trkpt lat="43.120373" lon="-1.499005">
        <ele>353.808</ele>
        <time>2022-02-07T11:29:19Z</time>
      </trkpt>
      <trkpt lat="43.121137" lon="-1.498945">
        <ele>357.876</ele>
        <time>2022-02-07T11:30:18Z</time>
      </trkpt>
      <trkpt lat="43.121627" lon="-1.499506">
        <ele>358.841</ele>
        <time>2022-02-07T11:31:15Z</time>
      </trkpt>
      <trkpt lat="43.122107" lon="-1.499642">
        <ele>356.234</ele>
        <time>2022-02-07T11:32:22Z</time>
      </trkpt>
      <trkpt lat="43.123409" lon="-1.499230">
        <ele>334.528</ele>
        <time>2022-02-07T11:33:51Z</time>
      </trkpt>
      <trkpt lat="43.123526" lon="-1.498807">
        <ele>330.549</ele>
        <time>2022-02-07T11:34:13Z</time>
      </trkpt>
      <trkpt lat="43.124056" lon="-1.498734">
        <ele>320.444</ele>
        <time>2022-02-07T11:34:49Z</time>
      </trkpt>
      <trkpt lat="43.124588" lon="-1.497939">
        <ele>311.423</ele>
        <time>2022-02-07T11:35:48Z</time>
      </trkpt>
      <trkpt lat="43.124959" lon="-1.496964">
        <ele>296.058</ele>
        <time>2022-02-07T11:36:46Z</time>
      </trkpt>
      <trkpt lat="43.125913" lon="-1.496269">
        <ele>282.757</ele>
        <time>2022-02-07T11:37:59Z</time>
      </trkpt>
      <trkpt lat="43.126498" lon="-1.496167">
        <ele>272.800</ele>
        <time>2022-02-07T11:38:41Z</time>
      </trkpt>
      <trkpt lat="43.127048" lon="-1.496238">
        <ele>270.720</ele>
        <time>2022-02-07T11:39:20Z</time>
      </trkpt>
      <trkpt lat="43.127549" lon="-1.496550">
        <ele>269.908</ele>
        <time>2022-02-07T11:40:01Z</time>
      </trkpt>
      <trkpt lat="43.129294" lon="-1.498482">
        <ele>258.964</ele>
        <time>2022-02-07T11:42:46Z</time>
      </trkpt>
      <trkpt lat="43.129551" lon="-1.498475">
        <ele>258.239</ele>
        <time>2022-02-07T11:43:06Z</time>
      </trkpt>
      <trkpt lat="43.130063" lon="-1.498138">
        <ele>248.482</ele>
        <time>2022-02-07T11:43:47Z</time>
      </trkpt>
      <trkpt lat="43.130710" lon="-1.498789">
        <ele>244.366</ele>
        <time>2022-02-07T11:44:44Z</time>
      </trkpt>
      <trkpt lat="43.131370" lon="-1.498536">
        <ele>240.047</ele>
        <time>2022-02-07T11:45:42Z</time>
      </trkpt>
      <trkpt lat="43.131884" lon="-1.499137">
        <ele>237.492</ele>
        <time>2022-02-07T11:46:39Z</time>
      </trkpt>
      <trkpt lat="43.132647" lon="-1.499426">
        <ele>234.781</ele>
        <time>2022-02-07T11:47:46Z</time>
      </trkpt>
      <trkpt lat="43.133860" lon="-1.499021">
        <ele>238.846</ele>
        <time>2022-02-07T11:49:40Z</time>
      </trkpt>
      <trkpt lat="43.135164" lon="-1.500117">
        <ele>235.354</ele>
        <time>2022-02-07T11:52:13Z</time>
      </trkpt>
      <trkpt lat="43.135536" lon="-1.500704">
        <ele>229.056</ele>
        <time>2022-02-07T11:53:02Z</time>
      </trkpt>
      <trkpt lat="43.136343" lon="-1.500736">
        <ele>227.011</ele>
        <time>2022-02-07T11:54:07Z</time>
      </trkpt>
      <trkpt lat="43.137164" lon="-1.501467">
        <ele>221.508</ele>
        <time>2022-02-07T11:55:27Z</time>
      </trkpt>
      <trkpt lat="43.137551" lon="-1.501221">
        <ele>219.774</ele>
        <time>2022-02-07T11:56:20Z</time>
      </trkpt>
      <trkpt lat="43.138004" lon="-1.501183">
        <ele>218.879</ele>
        <time>2022-02-07T11:56:59Z</time>
      </trkpt>
      <trkpt lat="43.138725" lon="-1.501332">
        <ele>216.752</ele>
        <time>2022-02-07T11:57:54Z</time>
      </trkpt>
      <trkpt lat="43.139314" lon="-1.501757">
        <ele>213.916</ele>
        <time>2022-02-07T11:58:44Z</time>
      </trkpt>
      <trkpt lat="43.140438" lon="-1.503897">
        <ele>209.487</ele>
        <time>2022-02-07T12:01:24Z</time>
      </trkpt>
      <trkpt lat="43.141766" lon="-1.504205">
        <ele>205.372</ele>
        <time>2022-02-07T12:03:23Z</time>
      </trkpt>
      <trkpt lat="43.142219" lon="-1.504486">
        <ele>203.461</ele>
        <time>2022-02-07T12:04:09Z</time>
      </trkpt>
      <trkpt lat="43.143055" lon="-1.505446">
        <ele>202.936</ele>
        <time>2022-02-07T12:05:41Z</time>
      </trkpt>
      <trkpt lat="43.144136" lon="-1.507472">
        <ele>204.654</ele>
        <time>2022-02-07T12:08:09Z</time>
      </trkpt>
      <trkpt lat="43.144883" lon="-1.509740">
        <ele>205.856</ele>
        <time>2022-02-07T12:11:09Z</time>
      </trkpt>
      <trkpt lat="43.145828" lon="-1.511698">
        <ele>203.511</ele>
        <time>2022-02-07T12:13:21Z</time>
      </trkpt>
      <trkpt lat="43.145790" lon="-1.513077">
        <ele>192.508</ele>
        <time>2022-02-07T12:14:38Z</time>
      </trkpt>
      <trkpt lat="43.145944" lon="-1.513883">
        <ele>187.864</ele>
        <time>2022-02-07T12:15:23Z</time>
      </trkpt>
      <trkpt lat="43.145255" lon="-1.515124">
        <ele>186.579</ele>
        <time>2022-02-07T12:17:00Z</time>
      </trkpt>
      <trkpt lat="43.144707" lon="-1.515577">
        <ele>186.672</ele>
        <time>2022-02-07T12:17:58Z</time>
      </trkpt>
      <trkpt lat="43.144749" lon="-1.516113">
        <ele>186.216</ele>
        <time>2022-02-07T12:18:33Z</time>
      </trkpt>
      <trkpt lat="43.143915" lon="-1.517751">
        <ele>184.517</ele>
        <time>2022-02-07T12:20:25Z</time>
      </trkpt>
      <trkpt lat="43.143735" lon="-1.517912">
        <ele>184.432</ele>
        <time>2022-02-07T12:20:38Z</time>
      </trkpt>
      <trkpt lat="43.143312" lon="-1.517436">
        <ele>184.931</ele>
        <time>2022-02-07T12:21:18Z</time>
      </trkpt>
      <trkpt lat="43.143065" lon="-1.518060">
        <ele>184.866</ele>
        <time>2022-02-07T12:21:54Z</time>
      </trkpt>
      <trkpt lat="43.142813" lon="-1.518290">
        <ele>184.947</ele>
        <time>2022-02-07T12:22:21Z</time>
      </trkpt>
      <trkpt lat="43.142766" lon="-1.518081">
        <ele>185.129</ele>
        <time>2022-02-07T12:23:13Z</time>
      </trkpt>
      <trkpt lat="43.142615" lon="-1.518285">
        <ele>184.921</ele>
        <time>2022-02-07T12:23:30Z</time>
      </trkpt>
      <trkpt lat="43.142647" lon="-1.518519">
        <ele>185.008</ele>
        <time>2022-02-07T12:39:32Z</time>
      </trkpt>
    </trkseg>
  </trk>
</gpx>
